sensor_id;sensor_type;location;lat;lon;timestamp;P1;durP1;ratioP1;P2;durP2;ratioP2
49217;SDS011;35045;51.194;7.268;2022-09-28T00:00:12;6.85;;;2.92;;
49217;SDS011;35045;51.194;7.268;2022-09-28T00:02:39;6.55;;;3.65;;
49217;SDS011;35045;51.194;7.268;2022-09-28T00:05:05;8.98;;;4.18;;
49217;SDS011;35045;51.194;7.268;2022-09-28T00:07:31;6.80;;;3.63;;
49217;SDS011;35045;51.194;7.268;2022-09-28T00:09:58;7.20;;;4.05;;
49217;SDS011;35045;51.194;7.268;2022-09-28T00:12:24;8.48;;;4.68;;
49217;SDS011;35045;51.194;7.268;2022-09-28T00:14:50;7.82;;;4.88;;
49217;SDS011;35045;51.194;7.268;2022-09-28T00:17:16;7.10;;;4.88;;
49217;SDS011;35045;51.194;7.268;2022-09-28T00:19:46;7.47;;;4.32;;
49217;SDS011;35045;51.194;7.268;2022-09-28T00:22:12;7.53;;;4.32;;
49217;SDS011;35045;51.194;7.268;2022-09-28T00:24:39;7.72;;;4.25;;
49217;SDS011;35045;51.194;7.268;2022-09-28T00:27:06;8.40;;;4.28;;
49217;SDS011;35045;51.194;7.268;2022-09-28T00:29:34;6.28;;;3.95;;
49217;SDS011;35045;51.194;7.268;2022-09-28T00:32:03;7.88;;;4.20;;
49217;SDS011;35045;51.194;7.268;2022-09-28T00:34:40;7.28;;;4.07;;
49217;SDS011;35045;51.194;7.268;2022-09-28T00:37:10;7.10;;;4.15;;
49217;SDS011;35045;51.194;7.268;2022-09-28T00:39:38;7.88;;;4.63;;
49217;SDS011;35045;51.194;7.268;2022-09-28T00:42:10;7.65;;;4.93;;
49217;SDS011;35045;51.194;7.268;2022-09-28T00:44:40;11.40;;;5.22;;
49217;SDS011;35045;51.194;7.268;2022-09-28T00:55:37;12.05;;;8.85;;
49217;SDS011;35045;51.194;7.268;2022-09-28T00:58:07;10.45;;;8.25;;
49217;SDS011;35045;51.194;7.268;2022-09-28T01:00:37;11.68;;;8.77;;
49217;SDS011;35045;51.194;7.268;2022-09-28T01:03:07;11.18;;;9.10;;
49217;SDS011;35045;51.194;7.268;2022-09-28T01:05:34;10.82;;;8.30;;
49217;SDS011;35045;51.194;7.268;2022-09-28T01:08:02;10.13;;;7.53;;
49217;SDS011;35045;51.194;7.268;2022-09-28T01:10:29;9.93;;;7.28;;
49217;SDS011;35045;51.194;7.268;2022-09-28T01:12:56;9.52;;;6.78;;
49217;SDS011;35045;51.194;7.268;2022-09-28T01:15:24;11.55;;;6.70;;
49217;SDS011;35045;51.194;7.268;2022-09-28T01:20:43;9.23;;;6.15;;
49217;SDS011;35045;51.194;7.268;2022-09-28T01:32:11;9.63;;;6.57;;
49217;SDS011;35045;51.194;7.268;2022-09-28T01:34:47;7.97;;;6.18;;
49217;SDS011;35045;51.194;7.268;2022-09-28T01:37:22;9.15;;;6.18;;
49217;SDS011;35045;51.194;7.268;2022-09-28T01:40:00;7.00;;;5.00;;
49217;SDS011;35045;51.194;7.268;2022-09-28T01:42:28;9.45;;;5.72;;
49217;SDS011;35045;51.194;7.268;2022-09-28T01:45:00;7.60;;;5.22;;
49217;SDS011;35045;51.194;7.268;2022-09-28T01:47:32;8.63;;;5.07;;
49217;SDS011;35045;51.194;7.268;2022-09-28T01:50:14;8.30;;;5.35;;
49217;SDS011;35045;51.194;7.268;2022-09-28T01:52:51;7.85;;;4.90;;
49217;SDS011;35045;51.194;7.268;2022-09-28T01:55:32;7.88;;;5.13;;
49217;SDS011;35045;51.194;7.268;2022-09-28T01:58:45;7.13;;;4.97;;
49217;SDS011;35045;51.194;7.268;2022-09-28T02:01:01;7.95;;;4.95;;
49217;SDS011;35045;51.194;7.268;2022-09-28T02:03:36;9.00;;;5.43;;
49217;SDS011;35045;51.194;7.268;2022-09-28T02:06:08;7.50;;;4.75;;
49217;SDS011;35045;51.194;7.268;2022-09-28T02:08:48;8.25;;;5.68;;
49217;SDS011;35045;51.194;7.268;2022-09-28T02:11:24;9.35;;;5.65;;
49217;SDS011;35045;51.194;7.268;2022-09-28T02:13:55;8.65;;;6.25;;
49217;SDS011;35045;51.194;7.268;2022-09-28T02:19:06;9.05;;;5.90;;
49217;SDS011;35045;51.194;7.268;2022-09-28T02:21:49;8.13;;;5.80;;
49217;SDS011;35045;51.194;7.268;2022-09-28T02:24:41;9.48;;;6.47;;
49217;SDS011;35045;51.194;7.268;2022-09-28T02:27:42;7.78;;;5.97;;
49217;SDS011;35045;51.194;7.268;2022-09-28T02:30:18;11.00;;;6.70;;
49217;SDS011;35045;51.194;7.268;2022-09-28T02:32:46;9.05;;;6.90;;
49217;SDS011;35045;51.194;7.268;2022-09-28T02:35:15;10.15;;;6.65;;
49217;SDS011;35045;51.194;7.268;2022-09-28T02:37:43;10.00;;;6.68;;
49217;SDS011;35045;51.194;7.268;2022-09-28T02:40:13;10.07;;;7.45;;
49217;SDS011;35045;51.194;7.268;2022-09-28T02:59:43;10.15;;;6.75;;
49217;SDS011;35045;51.194;7.268;2022-09-28T03:02:31;9.80;;;7.43;;
49217;SDS011;35045;51.194;7.268;2022-09-28T03:05:08;9.27;;;6.55;;
49217;SDS011;35045;51.194;7.268;2022-09-28T03:07:50;11.48;;;8.10;;
49217;SDS011;35045;51.194;7.268;2022-09-28T03:10:58;12.40;;;8.48;;
49217;SDS011;35045;51.194;7.268;2022-09-28T03:13:32;12.57;;;8.07;;
49217;SDS011;35045;51.194;7.268;2022-09-28T03:16:06;11.15;;;8.23;;
49217;SDS011;35045;51.194;7.268;2022-09-28T03:18:37;14.68;;;9.20;;
49217;SDS011;35045;51.194;7.268;2022-09-28T03:21:04;12.25;;;8.98;;
49217;SDS011;35045;51.194;7.268;2022-09-28T03:23:30;12.80;;;9.77;;
49217;SDS011;35045;51.194;7.268;2022-09-28T03:25:57;14.15;;;10.38;;
49217;SDS011;35045;51.194;7.268;2022-09-28T03:28:23;13.00;;;10.43;;
49217;SDS011;35045;51.194;7.268;2022-09-28T03:30:50;14.57;;;11.13;;
49217;SDS011;35045;51.194;7.268;2022-09-28T03:33:16;13.35;;;9.90;;
49217;SDS011;35045;51.194;7.268;2022-09-28T03:35:47;13.52;;;10.40;;
49217;SDS011;35045;51.194;7.268;2022-09-28T03:38:15;14.10;;;10.73;;
49217;SDS011;35045;51.194;7.268;2022-09-28T03:40:43;17.02;;;11.48;;
49217;SDS011;35045;51.194;7.268;2022-09-28T03:43:16;16.65;;;11.85;;
49217;SDS011;35045;51.194;7.268;2022-09-28T03:45:42;17.10;;;12.50;;
49217;SDS011;35045;51.194;7.268;2022-09-28T03:48:15;17.25;;;12.68;;
49217;SDS011;35045;51.194;7.268;2022-09-28T03:50:43;16.55;;;12.30;;
49217;SDS011;35045;51.194;7.268;2022-09-28T03:53:09;17.17;;;12.35;;
49217;SDS011;35045;51.194;7.268;2022-09-28T03:55:35;15.25;;;12.15;;
49217;SDS011;35045;51.194;7.268;2022-09-28T03:58:02;15.02;;;11.90;;
49217;SDS011;35045;51.194;7.268;2022-09-28T04:00:29;16.75;;;12.07;;
49217;SDS011;35045;51.194;7.268;2022-09-28T04:02:55;16.55;;;11.70;;
49217;SDS011;35045;51.194;7.268;2022-09-28T04:05:21;13.70;;;11.30;;
49217;SDS011;35045;51.194;7.268;2022-09-28T04:07:47;15.35;;;11.68;;
49217;SDS011;35045;51.194;7.268;2022-09-28T04:10:14;16.30;;;12.18;;
49217;SDS011;35045;51.194;7.268;2022-09-28T04:12:40;17.67;;;12.30;;
49217;SDS011;35045;51.194;7.268;2022-09-28T04:15:06;15.20;;;11.55;;
49217;SDS011;35045;51.194;7.268;2022-09-28T04:17:32;15.63;;;12.05;;
49217;SDS011;35045;51.194;7.268;2022-09-28T04:20:01;17.95;;;12.27;;
49217;SDS011;35045;51.194;7.268;2022-09-28T04:22:28;16.85;;;12.27;;
49217;SDS011;35045;51.194;7.268;2022-09-28T04:24:54;14.60;;;11.55;;
49217;SDS011;35045;51.194;7.268;2022-09-28T04:27:20;15.82;;;12.20;;
49217;SDS011;35045;51.194;7.268;2022-09-28T04:30:05;17.70;;;12.50;;
49217;SDS011;35045;51.194;7.268;2022-09-28T04:32:32;15.77;;;12.73;;
49217;SDS011;35045;51.194;7.268;2022-09-28T04:34:58;16.85;;;13.18;;
49217;SDS011;35045;51.194;7.268;2022-09-28T04:37:24;17.48;;;13.07;;
49217;SDS011;35045;51.194;7.268;2022-09-28T04:39:51;16.13;;;12.68;;
49217;SDS011;35045;51.194;7.268;2022-09-28T04:42:17;17.00;;;13.10;;
49217;SDS011;35045;51.194;7.268;2022-09-28T04:44:43;17.27;;;13.57;;
49217;SDS011;35045;51.194;7.268;2022-09-28T04:47:09;16.08;;;12.95;;
49217;SDS011;35045;51.194;7.268;2022-09-28T04:49:35;15.60;;;12.10;;
49217;SDS011;35045;51.194;7.268;2022-09-28T04:52:03;15.25;;;12.80;;
49217;SDS011;35045;51.194;7.268;2022-09-28T04:54:29;16.42;;;12.15;;
49217;SDS011;35045;51.194;7.268;2022-09-28T04:56:56;16.40;;;12.52;;
49217;SDS011;35045;51.194;7.268;2022-09-28T04:59:22;16.02;;;12.48;;
49217;SDS011;35045;51.194;7.268;2022-09-28T05:01:49;17.27;;;13.48;;
49217;SDS011;35045;51.194;7.268;2022-09-28T05:04:15;16.20;;;11.63;;
49217;SDS011;35045;51.194;7.268;2022-09-28T05:06:41;15.00;;;11.52;;
49217;SDS011;35045;51.194;7.268;2022-09-28T05:09:08;16.75;;;12.50;;
49217;SDS011;35045;51.194;7.268;2022-09-28T05:11:34;14.68;;;11.77;;
49217;SDS011;35045;51.194;7.268;2022-09-28T05:14:00;17.92;;;12.02;;
49217;SDS011;35045;51.194;7.268;2022-09-28T05:16:26;16.27;;;11.55;;
49217;SDS011;35045;51.194;7.268;2022-09-28T05:18:55;14.15;;;11.10;;
49217;SDS011;35045;51.194;7.268;2022-09-28T05:21:21;17.08;;;11.90;;
49217;SDS011;35045;51.194;7.268;2022-09-28T05:23:50;15.38;;;11.48;;
49217;SDS011;35045;51.194;7.268;2022-09-28T05:26:16;15.50;;;12.07;;
49217;SDS011;35045;51.194;7.268;2022-09-28T05:28:42;18.95;;;13.82;;
49217;SDS011;35045;51.194;7.268;2022-09-28T05:31:09;17.33;;;12.98;;
49217;SDS011;35045;51.194;7.268;2022-09-28T05:33:35;16.17;;;13.25;;
49217;SDS011;35045;51.194;7.268;2022-09-28T05:36:02;16.35;;;12.10;;
49217;SDS011;35045;51.194;7.268;2022-09-28T05:38:28;20.27;;;13.23;;
49217;SDS011;35045;51.194;7.268;2022-09-28T05:40:55;16.60;;;12.57;;
49217;SDS011;35045;51.194;7.268;2022-09-28T05:43:22;18.27;;;13.27;;
49217;SDS011;35045;51.194;7.268;2022-09-28T05:45:48;17.65;;;13.57;;
49217;SDS011;35045;51.194;7.268;2022-09-28T05:48:17;17.75;;;13.80;;
49217;SDS011;35045;51.194;7.268;2022-09-28T05:50:43;17.00;;;13.45;;
49217;SDS011;35045;51.194;7.268;2022-09-28T05:53:14;18.55;;;14.52;;
49217;SDS011;35045;51.194;7.268;2022-09-28T05:55:40;21.13;;;14.00;;
49217;SDS011;35045;51.194;7.268;2022-09-28T05:58:06;20.67;;;14.38;;
49217;SDS011;35045;51.194;7.268;2022-09-28T06:00:34;18.75;;;13.57;;
49217;SDS011;35045;51.194;7.268;2022-09-28T06:03:02;20.35;;;14.13;;
49217;SDS011;35045;51.194;7.268;2022-09-28T06:05:33;19.90;;;14.07;;
49217;SDS011;35045;51.194;7.268;2022-09-28T06:08:00;18.23;;;13.77;;
49217;SDS011;35045;51.194;7.268;2022-09-28T06:10:28;18.02;;;14.23;;
49217;SDS011;35045;51.194;7.268;2022-09-28T06:12:55;19.05;;;14.43;;
49217;SDS011;35045;51.194;7.268;2022-09-28T06:15:23;18.77;;;14.65;;
49217;SDS011;35045;51.194;7.268;2022-09-28T06:20:29;19.17;;;14.73;;
49217;SDS011;35045;51.194;7.268;2022-09-28T06:22:57;21.45;;;15.30;;
49217;SDS011;35045;51.194;7.268;2022-09-28T06:25:23;17.85;;;14.02;;
49217;SDS011;35045;51.194;7.268;2022-09-28T06:27:52;19.80;;;15.20;;
49217;SDS011;35045;51.194;7.268;2022-09-28T06:30:27;17.10;;;13.88;;
49217;SDS011;35045;51.194;7.268;2022-09-28T06:32:56;19.60;;;15.23;;
49217;SDS011;35045;51.194;7.268;2022-09-28T06:35:24;18.42;;;13.73;;
49217;SDS011;35045;51.194;7.268;2022-09-28T06:37:51;20.00;;;15.48;;
49217;SDS011;35045;51.194;7.268;2022-09-28T06:40:18;21.38;;;16.73;;
49217;SDS011;35045;51.194;7.268;2022-09-28T06:42:58;21.88;;;15.15;;
49217;SDS011;35045;51.194;7.268;2022-09-28T06:45:27;21.67;;;16.98;;
49217;SDS011;35045;51.194;7.268;2022-09-28T06:47:55;24.42;;;17.30;;
49217;SDS011;35045;51.194;7.268;2022-09-28T06:50:27;22.30;;;18.27;;
49217;SDS011;35045;51.194;7.268;2022-09-28T06:52:56;22.52;;;17.92;;
49217;SDS011;35045;51.194;7.268;2022-09-28T06:55:23;21.20;;;16.80;;
49217;SDS011;35045;51.194;7.268;2022-09-28T06:58:11;19.02;;;15.77;;
49217;SDS011;35045;51.194;7.268;2022-09-28T07:00:38;20.70;;;16.48;;
49217;SDS011;35045;51.194;7.268;2022-09-28T07:03:05;21.15;;;17.08;;
49217;SDS011;35045;51.194;7.268;2022-09-28T07:05:35;20.48;;;14.98;;
49217;SDS011;35045;51.194;7.268;2022-09-28T07:08:06;21.65;;;16.67;;
49217;SDS011;35045;51.194;7.268;2022-09-28T07:10:32;17.75;;;13.68;;
49217;SDS011;35045;51.194;7.268;2022-09-28T07:13:00;19.05;;;14.45;;
49217;SDS011;35045;51.194;7.268;2022-09-28T07:15:29;17.27;;;14.70;;
49217;SDS011;35045;51.194;7.268;2022-09-28T07:17:57;16.25;;;13.05;;
49217;SDS011;35045;51.194;7.268;2022-09-28T07:20:27;17.98;;;13.65;;
49217;SDS011;35045;51.194;7.268;2022-09-28T07:22:54;19.58;;;12.30;;
49217;SDS011;35045;51.194;7.268;2022-09-28T07:25:22;16.45;;;13.00;;
49217;SDS011;35045;51.194;7.268;2022-09-28T07:27:50;15.80;;;12.82;;
49217;SDS011;35045;51.194;7.268;2022-09-28T07:30:20;15.18;;;12.73;;
49217;SDS011;35045;51.194;7.268;2022-09-28T07:32:46;16.42;;;12.15;;
49217;SDS011;35045;51.194;7.268;2022-09-28T07:35:13;13.77;;;10.48;;
49217;SDS011;35045;51.194;7.268;2022-09-28T07:37:40;11.43;;;9.35;;
49217;SDS011;35045;51.194;7.268;2022-09-28T07:40:06;12.32;;;8.95;;
49217;SDS011;35045;51.194;7.268;2022-09-28T07:42:52;13.57;;;11.32;;
49217;SDS011;35045;51.194;7.268;2022-09-28T07:45:18;16.45;;;12.02;;
49217;SDS011;35045;51.194;7.268;2022-09-28T07:47:49;11.95;;;10.52;;
49217;SDS011;35045;51.194;7.268;2022-09-28T07:50:20;12.88;;;10.07;;
49217;SDS011;35045;51.194;7.268;2022-09-28T07:52:47;11.88;;;9.85;;
49217;SDS011;35045;51.194;7.268;2022-09-28T07:55:13;12.48;;;8.82;;
49217;SDS011;35045;51.194;7.268;2022-09-28T07:57:40;11.48;;;8.77;;
49217;SDS011;35045;51.194;7.268;2022-09-28T08:00:06;11.35;;;9.27;;
49217;SDS011;35045;51.194;7.268;2022-09-28T08:02:34;13.13;;;9.77;;
49217;SDS011;35045;51.194;7.268;2022-09-28T08:05:02;11.95;;;8.70;;
49217;SDS011;35045;51.194;7.268;2022-09-28T08:07:28;9.88;;;8.32;;
49217;SDS011;35045;51.194;7.268;2022-09-28T08:09:55;11.43;;;9.23;;
49217;SDS011;35045;51.194;7.268;2022-09-28T08:12:21;12.18;;;9.23;;
49217;SDS011;35045;51.194;7.268;2022-09-28T08:14:47;9.70;;;8.10;;
49217;SDS011;35045;51.194;7.268;2022-09-28T08:17:14;11.02;;;8.70;;
49217;SDS011;35045;51.194;7.268;2022-09-28T08:19:40;11.40;;;9.13;;
49217;SDS011;35045;51.194;7.268;2022-09-28T08:22:25;11.40;;;8.90;;
49217;SDS011;35045;51.194;7.268;2022-09-28T08:24:51;11.43;;;9.00;;
49217;SDS011;35045;51.194;7.268;2022-09-28T08:27:17;11.52;;;8.88;;
49217;SDS011;35045;51.194;7.268;2022-09-28T08:29:43;10.65;;;8.60;;
49217;SDS011;35045;51.194;7.268;2022-09-28T08:32:10;10.77;;;8.90;;
49217;SDS011;35045;51.194;7.268;2022-09-28T08:34:36;14.10;;;9.85;;
49217;SDS011;35045;51.194;7.268;2022-09-28T08:37:03;13.48;;;9.57;;
49217;SDS011;35045;51.194;7.268;2022-09-28T08:39:31;13.30;;;9.20;;
49217;SDS011;35045;51.194;7.268;2022-09-28T08:42:03;13.80;;;9.85;;
49217;SDS011;35045;51.194;7.268;2022-09-28T08:44:43;11.68;;;9.25;;
49217;SDS011;35045;51.194;7.268;2022-09-28T08:47:19;12.10;;;9.48;;
49217;SDS011;35045;51.194;7.268;2022-09-28T08:50:12;11.73;;;9.25;;
49217;SDS011;35045;51.194;7.268;2022-09-28T08:52:44;13.05;;;9.95;;
49217;SDS011;35045;51.194;7.268;2022-09-28T08:55:29;12.18;;;9.02;;
49217;SDS011;35045;51.194;7.268;2022-09-28T08:58:09;11.95;;;9.75;;
49217;SDS011;35045;51.194;7.268;2022-09-28T09:00:44;12.57;;;9.90;;
49217;SDS011;35045;51.194;7.268;2022-09-28T09:03:12;13.63;;;10.07;;
49217;SDS011;35045;51.194;7.268;2022-09-28T09:05:51;13.88;;;9.32;;
49217;SDS011;35045;51.194;7.268;2022-09-28T09:13:58;11.98;;;9.10;;
49217;SDS011;35045;51.194;7.268;2022-09-28T09:22:38;14.45;;;8.90;;
49217;SDS011;35045;51.194;7.268;2022-09-28T09:25:20;10.30;;;8.68;;
49217;SDS011;35045;51.194;7.268;2022-09-28T09:33:46;10.18;;;7.50;;
49217;SDS011;35045;51.194;7.268;2022-09-28T09:36:52;9.13;;;6.95;;
49217;SDS011;35045;51.194;7.268;2022-09-28T09:42:28;8.73;;;7.03;;
49217;SDS011;35045;51.194;7.268;2022-09-28T09:47:44;9.93;;;7.85;;
49217;SDS011;35045;51.194;7.268;2022-09-28T09:52:57;12.57;;;7.13;;
49217;SDS011;35045;51.194;7.268;2022-09-28T09:58:18;9.63;;;7.05;;
49217;SDS011;35045;51.194;7.268;2022-09-28T10:00:49;11.07;;;8.25;;
49217;SDS011;35045;51.194;7.268;2022-09-28T10:06:01;11.32;;;8.43;;
49217;SDS011;35045;51.194;7.268;2022-09-28T10:08:33;10.07;;;7.45;;
49217;SDS011;35045;51.194;7.268;2022-09-28T10:11:04;10.88;;;8.10;;
49217;SDS011;35045;51.194;7.268;2022-09-28T10:13:37;12.45;;;9.23;;
49217;SDS011;35045;51.194;7.268;2022-09-28T10:16:04;10.73;;;8.35;;
49217;SDS011;35045;51.194;7.268;2022-09-28T10:18:32;10.32;;;7.93;;
49217;SDS011;35045;51.194;7.268;2022-09-28T10:20:58;11.23;;;8.32;;
49217;SDS011;35045;51.194;7.268;2022-09-28T10:23:26;11.98;;;9.70;;
49217;SDS011;35045;51.194;7.268;2022-09-28T10:25:56;12.60;;;9.10;;
49217;SDS011;35045;51.194;7.268;2022-09-28T10:31:35;13.60;;;10.15;;
49217;SDS011;35045;51.194;7.268;2022-09-28T10:34:04;15.52;;;11.23;;
49217;SDS011;35045;51.194;7.268;2022-09-28T10:36:32;12.65;;;10.23;;
49217;SDS011;35045;51.194;7.268;2022-09-28T10:39:20;13.47;;;10.73;;
49217;SDS011;35045;51.194;7.268;2022-09-28T10:41:48;12.82;;;9.18;;
49217;SDS011;35045;51.194;7.268;2022-09-28T10:44:15;10.75;;;9.18;;
49217;SDS011;35045;51.194;7.268;2022-09-28T10:46:45;12.05;;;9.20;;
49217;SDS011;35045;51.194;7.268;2022-09-28T10:49:25;12.07;;;9.07;;
49217;SDS011;35045;51.194;7.268;2022-09-28T10:51:53;10.75;;;8.18;;
49217;SDS011;35045;51.194;7.268;2022-09-28T10:54:21;10.98;;;7.60;;
49217;SDS011;35045;51.194;7.268;2022-09-28T10:56:50;9.50;;;7.53;;
49217;SDS011;35045;51.194;7.268;2022-09-28T11:01:59;12.05;;;8.93;;
49217;SDS011;35045;51.194;7.268;2022-09-28T11:04:39;10.13;;;8.00;;
49217;SDS011;35045;51.194;7.268;2022-09-28T11:07:45;9.60;;;7.93;;
49217;SDS011;35045;51.194;7.268;2022-09-28T11:10:17;11.70;;;7.78;;
49217;SDS011;35045;51.194;7.268;2022-09-28T11:12:46;9.07;;;7.28;;
49217;SDS011;35045;51.194;7.268;2022-09-28T11:15:31;9.73;;;6.22;;
49217;SDS011;35045;51.194;7.268;2022-09-28T11:21:11;7.95;;;5.78;;
49217;SDS011;35045;51.194;7.268;2022-09-28T11:23:40;8.88;;;5.55;;
49217;SDS011;35045;51.194;7.268;2022-09-28T11:26:20;7.22;;;4.47;;
49217;SDS011;35045;51.194;7.268;2022-09-28T11:28:50;9.85;;;4.68;;
49217;SDS011;35045;51.194;7.268;2022-09-28T11:31:22;9.13;;;4.90;;
49217;SDS011;35045;51.194;7.268;2022-09-28T11:33:59;8.20;;;4.30;;
49217;SDS011;35045;51.194;7.268;2022-09-28T11:36:44;7.35;;;4.40;;
49217;SDS011;35045;51.194;7.268;2022-09-28T11:39:39;8.68;;;4.28;;
49217;SDS011;35045;51.194;7.268;2022-09-28T11:42:16;8.65;;;4.22;;
49217;SDS011;35045;51.194;7.268;2022-09-28T11:45:14;7.53;;;3.80;;
49217;SDS011;35045;51.194;7.268;2022-09-28T11:48:00;7.80;;;4.30;;
49217;SDS011;35045;51.194;7.268;2022-09-28T11:50:31;7.78;;;3.75;;
49217;SDS011;35045;51.194;7.268;2022-09-28T11:53:36;7.00;;;4.07;;
49217;SDS011;35045;51.194;7.268;2022-09-28T11:56:17;6.60;;;3.67;;
49217;SDS011;35045;51.194;7.268;2022-09-28T12:06:58;6.93;;;3.42;;
49217;SDS011;35045;51.194;7.268;2022-09-28T12:09:53;6.38;;;3.40;;
49217;SDS011;35045;51.194;7.268;2022-09-28T12:12:36;6.60;;;3.00;;
49217;SDS011;35045;51.194;7.268;2022-09-28T12:15:17;6.60;;;3.30;;
49217;SDS011;35045;51.194;7.268;2022-09-28T12:17:53;6.10;;;2.63;;
49217;SDS011;35045;51.194;7.268;2022-09-28T12:20:24;6.32;;;3.28;;
49217;SDS011;35045;51.194;7.268;2022-09-28T12:23:04;7.32;;;3.20;;
49217;SDS011;35045;51.194;7.268;2022-09-28T12:25:50;5.40;;;2.85;;
49217;SDS011;35045;51.194;7.268;2022-09-28T12:28:27;6.85;;;3.10;;
49217;SDS011;35045;51.194;7.268;2022-09-28T12:31:14;6.13;;;2.95;;
49217;SDS011;35045;51.194;7.268;2022-09-28T12:33:49;6.32;;;2.97;;
49217;SDS011;35045;51.194;7.268;2022-09-28T12:36:35;7.95;;;2.95;;
49217;SDS011;35045;51.194;7.268;2022-09-28T12:39:20;6.25;;;2.78;;
49217;SDS011;35045;51.194;7.268;2022-09-28T12:48:13;5.10;;;2.65;;
49217;SDS011;35045;51.194;7.268;2022-09-28T12:56:30;7.28;;;2.88;;
49217;SDS011;35045;51.194;7.268;2022-09-28T12:59:10;6.30;;;2.80;;
49217;SDS011;35045;51.194;7.268;2022-09-28T13:04:52;4.80;;;2.50;;
49217;SDS011;35045;51.194;7.268;2022-09-28T13:10:22;5.40;;;2.70;;
49217;SDS011;35045;51.194;7.268;2022-09-28T13:18:10;8.93;;;3.35;;
49217;SDS011;35045;51.194;7.268;2022-09-28T13:23:43;6.50;;;2.83;;
49217;SDS011;35045;51.194;7.268;2022-09-28T13:26:13;5.55;;;2.20;;
49217;SDS011;35045;51.194;7.268;2022-09-28T13:28:42;5.85;;;2.53;;
49217;SDS011;35045;51.194;7.268;2022-09-28T13:31:11;5.55;;;2.47;;
49217;SDS011;35045;51.194;7.268;2022-09-28T13:33:44;6.00;;;2.35;;
49217;SDS011;35045;51.194;7.268;2022-09-28T13:38:53;4.55;;;2.13;;
49217;SDS011;35045;51.194;7.268;2022-09-28T13:41:38;4.28;;;1.80;;
49217;SDS011;35045;51.194;7.268;2022-09-28T13:46:56;4.05;;;1.75;;
49217;SDS011;35045;51.194;7.268;2022-09-28T13:54:54;5.10;;;2.60;;
49217;SDS011;35045;51.194;7.268;2022-09-28T13:57:50;6.00;;;2.65;;
49217;SDS011;35045;51.194;7.268;2022-09-28T14:06:03;5.28;;;2.75;;
49217;SDS011;35045;51.194;7.268;2022-09-28T14:16:35;6.50;;;4.32;;
49217;SDS011;35045;51.194;7.268;2022-09-28T14:24:54;4.88;;;2.70;;
49217;SDS011;35045;51.194;7.268;2022-09-28T14:32:39;7.80;;;3.40;;
49217;SDS011;35045;51.194;7.268;2022-09-28T14:35:18;5.35;;;2.92;;
49217;SDS011;35045;51.194;7.268;2022-09-28T14:37:59;4.32;;;1.83;;
49217;SDS011;35045;51.194;7.268;2022-09-28T14:59:18;3.92;;;1.60;;
49217;SDS011;35045;51.194;7.268;2022-09-28T15:04:38;5.95;;;2.63;;
49217;SDS011;35045;51.194;7.268;2022-09-28T15:07:21;6.95;;;2.30;;
49217;SDS011;35045;51.194;7.268;2022-09-28T15:09:57;4.78;;;2.20;;
49217;SDS011;35045;51.194;7.268;2022-09-28T15:12:25;7.05;;;2.10;;
49217;SDS011;35045;51.194;7.268;2022-09-28T15:14:54;7.15;;;2.70;;
49217;SDS011;35045;51.194;7.268;2022-09-28T15:17:27;5.03;;;2.20;;
49217;SDS011;35045;51.194;7.268;2022-09-28T15:22:46;4.75;;;2.05;;
49217;SDS011;35045;51.194;7.268;2022-09-28T15:25:15;4.93;;;2.38;;
49217;SDS011;35045;51.194;7.268;2022-09-28T15:27:49;7.43;;;2.47;;
49217;SDS011;35045;51.194;7.268;2022-09-28T15:30:26;6.25;;;2.58;;
49217;SDS011;35045;51.194;7.268;2022-09-28T15:32:54;4.70;;;2.47;;
49217;SDS011;35045;51.194;7.268;2022-09-28T15:35:41;5.78;;;2.35;;
49217;SDS011;35045;51.194;7.268;2022-09-28T15:38:13;6.28;;;2.85;;
49217;SDS011;35045;51.194;7.268;2022-09-28T15:40:43;8.07;;;2.53;;
49217;SDS011;35045;51.194;7.268;2022-09-28T15:43:22;6.60;;;2.97;;
49217;SDS011;35045;51.194;7.268;2022-09-28T15:46:04;5.50;;;2.88;;
49217;SDS011;35045;51.194;7.268;2022-09-28T15:48:50;5.50;;;2.70;;
49217;SDS011;35045;51.194;7.268;2022-09-28T15:51:20;7.22;;;2.97;;
49217;SDS011;35045;51.194;7.268;2022-09-28T15:53:54;7.13;;;2.97;;
49217;SDS011;35045;51.194;7.268;2022-09-28T15:56:27;6.10;;;2.75;;
49217;SDS011;35045;51.194;7.268;2022-09-28T15:59:07;6.55;;;2.78;;
49217;SDS011;35045;51.194;7.268;2022-09-28T16:01:39;5.50;;;2.70;;
49217;SDS011;35045;51.194;7.268;2022-09-28T16:07:16;3.83;;;1.70;;
49217;SDS011;35045;51.194;7.268;2022-09-28T16:12:54;5.57;;;1.35;;
49217;SDS011;35045;51.194;7.268;2022-09-28T16:15:25;2.75;;;1.40;;
49217;SDS011;35045;51.194;7.268;2022-09-28T16:17:57;2.10;;;1.10;;
49217;SDS011;35045;51.194;7.268;2022-09-28T16:23:07;4.90;;;1.50;;
49217;SDS011;35045;51.194;7.268;2022-09-28T16:26:01;3.33;;;1.40;;
49217;SDS011;35045;51.194;7.268;2022-09-28T16:33:44;4.68;;;1.92;;
49217;SDS011;35045;51.194;7.268;2022-09-28T16:36:14;4.43;;;2.03;;
49217;SDS011;35045;51.194;7.268;2022-09-28T16:38:47;4.70;;;2.10;;
49217;SDS011;35045;51.194;7.268;2022-09-28T16:41:14;3.35;;;1.50;;
49217;SDS011;35045;51.194;7.268;2022-09-28T16:43:44;5.05;;;2.25;;
49217;SDS011;35045;51.194;7.268;2022-09-28T16:46:14;5.93;;;2.30;;
49217;SDS011;35045;51.194;7.268;2022-09-28T16:48:43;6.20;;;2.28;;
49217;SDS011;35045;51.194;7.268;2022-09-28T16:51:13;4.25;;;1.85;;
49217;SDS011;35045;51.194;7.268;2022-09-28T16:53:40;5.07;;;2.42;;
49217;SDS011;35045;51.194;7.268;2022-09-28T16:56:25;5.32;;;2.45;;
49217;SDS011;35045;51.194;7.268;2022-09-28T16:58:52;6.93;;;2.70;;
49217;SDS011;35045;51.194;7.268;2022-09-28T17:01:19;6.00;;;3.42;;
49217;SDS011;35045;51.194;7.268;2022-09-28T17:03:46;5.35;;;1.95;;
49217;SDS011;35045;51.194;7.268;2022-09-28T17:06:15;4.22;;;1.70;;
49217;SDS011;35045;51.194;7.268;2022-09-28T17:08:43;4.00;;;1.92;;
49217;SDS011;35045;51.194;7.268;2022-09-28T17:11:13;3.97;;;1.60;;
49217;SDS011;35045;51.194;7.268;2022-09-28T17:13:44;4.10;;;1.73;;
49217;SDS011;35045;51.194;7.268;2022-09-28T17:16:12;4.40;;;1.88;;
49217;SDS011;35045;51.194;7.268;2022-09-28T17:18:42;4.82;;;1.98;;
49217;SDS011;35045;51.194;7.268;2022-09-28T17:21:16;4.65;;;1.85;;
49217;SDS011;35045;51.194;7.268;2022-09-28T17:23:46;4.55;;;1.98;;
49217;SDS011;35045;51.194;7.268;2022-09-28T17:26:18;4.80;;;2.05;;
49217;SDS011;35045;51.194;7.268;2022-09-28T17:28:52;4.72;;;1.95;;
49217;SDS011;35045;51.194;7.268;2022-09-28T17:31:18;5.07;;;1.98;;
49217;SDS011;35045;51.194;7.268;2022-09-28T17:33:45;5.70;;;2.45;;
49217;SDS011;35045;51.194;7.268;2022-09-28T17:36:12;5.30;;;2.53;;
49217;SDS011;35045;51.194;7.268;2022-09-28T17:38:40;6.05;;;2.67;;
49217;SDS011;35045;51.194;7.268;2022-09-28T17:41:11;5.43;;;2.95;;
49217;SDS011;35045;51.194;7.268;2022-09-28T17:43:42;4.85;;;2.50;;
49217;SDS011;35045;51.194;7.268;2022-09-28T17:46:28;7.22;;;2.38;;
49217;SDS011;35045;51.194;7.268;2022-09-28T17:48:57;6.88;;;2.80;;
49217;SDS011;35045;51.194;7.268;2022-09-28T17:51:26;6.55;;;3.67;;
49217;SDS011;35045;51.194;7.268;2022-09-28T17:53:57;6.57;;;3.20;;
49217;SDS011;35045;51.194;7.268;2022-09-28T17:56:26;6.05;;;3.47;;
49217;SDS011;35045;51.194;7.268;2022-09-28T17:58:55;5.40;;;3.13;;
49217;SDS011;35045;51.194;7.268;2022-09-28T18:01:24;6.07;;;3.40;;
49217;SDS011;35045;51.194;7.268;2022-09-28T18:03:51;5.72;;;3.50;;
49217;SDS011;35045;51.194;7.268;2022-09-28T18:06:17;5.88;;;3.55;;
49217;SDS011;35045;51.194;7.268;2022-09-28T18:08:48;7.03;;;3.40;;
49217;SDS011;35045;51.194;7.268;2022-09-28T18:11:14;6.63;;;3.50;;
49217;SDS011;35045;51.194;7.268;2022-09-28T18:13:42;6.60;;;3.45;;